Time;durP1;ratioP1;P1;durP2;ratioP2;P2;SDS_P1;SDS_P2;PMS_P1;PMS_P2;Temp;Humidity;BMP_temperature;BMP_pressure;BME280_temperature;BME280_humidity;BME280_pressure;Samples;Min_cycle;Max_cycle;Signal;HPM_P1;HPM_P2
2022/04/03 00:00:45;;;;;;;6.10;3.55;;;-0.90;22.20;;;-1.23;62.28;101332.66;4959542;28;20223;-74
2022/04/03 00:03:14;;;;;;;8.48;3.85;;;-0.90;22.80;;;-1.23;62.81;101331.81;4969647;28;20181;-73
2022/04/03 00:06:04;;;;;;;3.40;3.05;;;-0.90;23.00;;;-1.21;62.41;101336.03;4969175;28;20255;-74
2022/04/03 00:08:46;;;;;;;6.32;4.28;;;-0.90;23.40;;;-1.16;62.01;101339.16;4967921;29;20216;-72
2022/04/03 00:11:30;;;;;;;5.15;3.15;;;-0.90;23.20;;;-1.23;62.05;101329.16;4968490;28;20320;-73
2022/04/03 00:13:59;;;;;;;4.30;3.90;;;-0.90;23.50;;;-1.24;62.64;101330.09;4983564;28;20200;-74
2022/04/03 00:16:29;;;;;;;5.90;5.30;;;-0.90;24.00;;;-1.28;62.60;101329.50;4966892;29;20196;-73
2022/04/03 00:18:58;;;;;;;6.03;4.05;;;-0.90;24.40;;;-1.24;61.89;101330.94;4964520;29;20566;-73
2022/04/03 00:21:28;;;;;;;5.72;4.18;;;-0.90;24.90;;;-1.26;62.67;101326.75;4972405;28;20255;-73
2022/04/03 00:23:57;;;;;;;4.32;3.28;;;-1.00;25.40;;;-1.34;62.52;101320.19;4957276;28;20181;-73
2022/04/03 00:26:26;;;;;;;6.43;4.28;;;-1.00;25.60;;;-1.39;62.78;101322.34;4956954;28;20298;-73
2022/04/03 00:28:56;;;;;;;7.93;4.57;;;-1.00;26.10;;;-1.51;62.86;101322.41;4956943;28;20203;-73
2022/04/03 00:31:25;;;;;;;5.22;3.95;;;-1.10;26.40;;;-1.67;63.38;101316.53;4957005;28;20585;-75
2022/04/03 00:33:54;;;;;;;7.53;5.43;;;-1.20;26.90;;;-1.70;63.54;101317.63;4956937;29;20608;-74
2022/04/03 00:36:23;;;;;;;8.00;4.80;;;-1.20;28.30;;;-1.79;64.34;101319.13;4957322;29;20295;-73
2022/04/03 00:38:54;;;;;;;7.18;5.20;;;-1.30;29.30;;;-1.58;64.12;101319.34;4956782;28;20192;-73
2022/04/03 00:41:23;;;;;;;6.28;4.88;;;-1.30;30.70;;;-1.67;64.34;101320.03;4962667;28;20295;-74
2022/04/03 00:43:53;;;;;;;5.82;4.70;;;-1.30;32.20;;;-1.64;63.99;101324.25;4962455;28;20196;-75
2022/04/03 00:46:24;;;;;;;6.35;4.70;;;-1.30;32.20;;;-1.72;64.46;101319.53;4962547;28;20557;-73
2022/04/03 00:48:53;;;;;;;7.65;4.45;;;-1.30;32.80;;;-1.67;63.76;101320.03;4962308;28;20661;-74
2022/04/03 00:51:23;;;;;;;5.72;4.40;;;-1.30;33.40;;;-1.57;64.05;101317.56;4974674;28;20227;-74
2022/04/03 00:53:51;;;;;;;5.03;3.47;;;-1.30;34.10;;;-1.62;63.36;101322.34;4956222;29;20183;-74
2022/04/03 00:56:21;;;;;;;5.25;3.67;;;-1.30;34.40;;;-1.60;63.94;101329.25;4954832;29;20235;-74
2022/04/03 00:58:51;;;;;;;8.30;3.50;;;-1.30;34.30;;;-1.63;63.30;101321.50;4956146;28;20184;-74
2022/04/03 01:01:23;;;;;;;7.15;3.70;;;-1.40;35.00;;;-1.66;63.66;101319.09;4956449;28;20593;-74
2022/04/03 01:03:52;;;;;;;4.20;3.78;;;-1.40;35.60;;;-1.74;64.19;101326.75;4958925;29;20188;-73
2022/04/03 01:06:21;;;;;;;4.05;3.63;;;-1.40;36.90;;;-1.78;64.41;101331.44;4967335;29;20226;-74
2022/04/03 01:08:50;;;;;;;3.50;3.20;;;-1.50;37.70;;;-1.67;64.41;101327.16;4965902;29;20204;-74
2022/04/03 01:11:22;;;;;;;10.73;4.18;;;-1.40;38.40;;;-1.72;64.13;101329.31;4973004;28;20208;-75
2022/04/03 01:13:53;;;;;;;7.40;4.35;;;-1.40;38.70;;;-1.68;64.18;101331.59;4973075;29;20240;-73
2022/04/03 01:16:24;;;;;;;8.25;3.10;;;-1.40;38.90;;;-1.86;64.19;101330.31;4961879;28;20727;-74
2022/04/03 01:18:53;;;;;;;4.72;3.65;;;-1.50;39.90;;;-1.88;64.80;101329.56;4957271;28;20440;-74
2022/04/03 01:21:23;;;;;;;5.68;3.60;;;-1.50;41.90;;;-1.92;64.62;101333.41;4956982;28;20220;-72
2022/04/03 01:23:54;;;;;;;4.88;4.35;;;-1.50;41.80;;;-1.77;64.43;101327.84;4956395;29;20200;-73
2022/04/03 01:26:25;;;;;;;6.55;4.10;;;-1.50;42.10;;;-1.82;64.61;101329.13;4956949;29;20248;-74
2022/04/03 01:28:53;;;;;;;5.38;3.72;;;-1.50;41.80;;;-1.81;64.79;101329.03;4955938;29;20181;-73
2022/04/03 01:31:22;;;;;;;5.32;4.15;;;-1.50;42.00;;;-1.80;64.30;101338.69;4955572;28;20532;-72
2022/04/03 01:33:51;;;;;;;6.95;4.25;;;-1.50;42.30;;;-1.78;63.93;101330.59;4955908;28;20196;-73
2022/04/03 01:36:20;;;;;;;5.05;3.20;;;-1.50;41.60;;;-1.75;64.68;101333.03;4955871;28;20192;-72
2022/04/03 01:38:49;;;;;;;6.50;3.30;;;-1.50;42.00;;;-1.71;64.04;101339.81;4956032;28;20177;-73
2022/04/03 01:41:17;;;;;;;4.05;3.55;;;-1.40;42.30;;;-1.61;63.81;101335.53;4954264;28;20223;-73
2022/04/03 01:43:48;;;;;;;4.90;3.45;;;-1.40;41.40;;;-1.66;63.61;101331.50;4956219;29;20184;-72
2022/04/03 01:46:17;;;;;;;5.22;3.78;;;-1.40;40.50;;;-1.72;63.96;101335.47;4956990;28;20251;-73
2022/04/03 01:48:45;;;;;;;7.15;3.50;;;-1.40;41.00;;;-1.56;63.89;101328.06;4956243;29;20204;-73
2022/04/03 01:51:15;;;;;;;3.45;2.97;;;-1.40;41.00;;;-1.31;63.02;101319.94;4956996;28;20212;-74
2022/04/03 01:53:43;;;;;;;6.07;3.70;;;-1.20;39.20;;;-1.24;62.88;101330.94;4956823;29;20176;-73
2022/04/03 01:56:12;;;;;;;5.75;3.95;;;-1.10;37.80;;;-1.21;62.67;101324.56;4956559;28;20228;-72
2022/04/03 01:58:41;;;;;;;6.28;3.17;;;-1.00;35.90;;;-1.16;62.87;101327.72;4956925;28;20226;-74
2022/04/03 02:01:12;;;;;;;5.35;4.30;;;-1.00;35.90;;;-1.12;62.75;101323.88;4957943;28;20216;-74
2022/04/03 02:03:41;;;;;;;6.15;4.35;;;-0.90;35.50;;;-1.14;62.04;101323.13;4959058;29;20267;-73
2022/04/03 02:06:11;;;;;;;6.82;3.85;;;-0.90;34.10;;;-0.92;61.49;101317.88;4960564;28;20196;-74
2022/04/03 02:08:39;;;;;;;8.70;4.70;;;-0.80;33.80;;;-0.91;61.30;101316.91;4960464;28;20188;-73
2022/04/03 02:11:08;;;;;;;4.10;3.70;;;-0.70;32.10;;;-0.80;61.91;101316.94;4958512;28;20211;-73
2022/04/03 02:13:37;;;;;;;4.55;3.47;;;-0.70;32.50;;;-0.69;61.32;101321.41;4954715;28;20199;-74
2022/04/03 02:16:07;;;;;;;4.15;3.72;;;-0.60;31.30;;;-0.70;61.03;101320.56;4958191;29;20184;-74
2022/04/03 02:18:38;;;;;;;5.72;3.28;;;-0.50;30.20;;;-0.67;60.91;101316.81;4959399;29;20220;-74
2022/04/03 02:21:08;;;;;;;4.32;3.90;;;-0.50;29.70;;;-0.48;60.28;101325.88;4956630;28;20581;-73
2022/04/03 02:24:33;;;;;;;6.82;4.00;;;-0.40;30.00;;;-0.40;60.57;101316.47;4959924;28;20204;-74
2022/04/03 02:27:35;;;;;;;5.20;4.20;;;-0.30;28.50;;;-0.49;60.34;101321.56;4955501;29;20192;-74
2022/04/03 02:30:08;;;;;;;5.00;3.10;;;-0.30;28.20;;;-0.49;60.86;101313.56;4956084;28;20586;-73
2022/04/03 02:32:38;;;;;;;4.60;3.63;;;-0.30;28.30;;;-0.41;60.83;101315.63;4954663;28;20255;-74
2022/04/03 02:35:12;;;;;;;3.85;3.55;;;-0.20;28.30;;;-0.46;60.58;101312.47;4954721;28;20175;-73
2022/04/03 02:37:43;;;;;;;4.47;3.00;;;-0.30;27.60;;;-0.40;60.53;101312.00;4955550;29;20173;-74
2022/04/03 02:40:45;;;;;;;10.18;4.80;;;-0.20;27.90;;;-0.49;60.86;101318.03;4960829;28;20215;-72
2022/04/03 02:43:56;;;;;;;7.47;4.75;;;-0.30;28.00;;;-0.61;61.11;101313.69;4947488;29;20196;-74
2022/04/03 02:47:15;;;;;;;4.30;3.05;;;-0.40;27.80;;;-0.53;61.22;101319.22;4977528;28;20255;-75
2022/04/03 02:50:24;;;;;;;5.32;3.40;;;-0.40;28.10;;;-0.44;59.98;101310.56;4966020;29;20215;-74
2022/04/03 03:00:56;;;;;;;5.10;3.80;;;-0.30;26.60;;;-0.47;60.20;101311.63;4951950;28;20604;-73
2022/04/03 03:03:25;;;;;;;5.47;4.35;;;-0.30;26.60;;;-0.39;60.20;101307.53;4953019;28;20196;-74
2022/04/03 03:05:55;;;;;;;8.57;4.28;;;-0.20;26.60;;;-0.43;60.56;101313.06;4954434;29;20250;-74
2022/04/03 03:11:28;;;;;;;8.45;4.32;;;-0.20;27.10;;;-0.44;60.66;101300.72;4954548;28;20218;-73
2022/04/03 03:13:57;;;;;;;6.75;4.40;;;-0.20;27.60;;;-0.47;60.76;101306.31;4954518;29;20658;-72
2022/04/03 03:16:26;;;;;;;7.93;4.82;;;-0.30;27.70;;;-0.40;61.38;101297.84;4955059;29;20678;-74
2022/04/03 03:18:55;;;;;;;8.27;6.63;;;-0.20;28.00;;;-0.44;61.19;101299.91;4953446;29;20198;-74
2022/04/03 03:21:25;;;;;;;5.80;4.60;;;-0.30;28.40;;;-0.47;61.18;101301.00;4955590;28;20226;-73
2022/04/03 03:30:27;;;;;;;5.63;5.05;;;-0.20;29.40;;;-0.29;61.18;101303.16;4958250;28;20211;-73
2022/04/03 03:40:21;;;;;;;6.40;4.43;;;-0.20;29.70;;;-0.34;61.53;101300.03;4956160;28;20266;-73
2022/04/03 03:43:15;;;;;;;5.63;4.72;;;-0.20;29.90;;;-0.24;61.59;101293.81;4957638;29;20290;-73
2022/04/03 03:46:21;;;;;;;10.35;4.78;;;-0.10;30.00;;;-0.20;60.87;101295.31;4955948;28;20232;-72
2022/04/03 03:53:18;;;;;;;4.75;4.25;;;0.00;28.80;;;-0.29;60.93;101309.31;4972162;28;20671;-74
2022/04/03 04:10:32;;;;;;;6.80;3.67;;;-0.20;28.40;;;-0.31;60.54;101307.75;4955956;28;20307;-73
2022/04/03 04:17:37;;;;;;;4.93;4.25;;;-0.10;25.70;;;-0.31;59.33;101310.41;4956108;29;20211;-73
2022/04/03 04:35:36;;;;;;;5.72;3.97;;;-0.10;23.80;;;-0.37;59.10;101311.75;4956611;29;20227;-74
2022/04/03 04:38:06;;;;;;;5.00;3.95;;;-0.20;24.10;;;-0.35;59.31;101314.28;4956080;28;20302;-74
2022/04/03 04:40:35;;;;;;;5.43;4.55;;;-0.20;23.60;;;-0.41;59.14;101314.75;5121318;23;20244;-70
2022/04/03 04:43:05;;;;;;;6.70;4.28;;;-0.20;23.30;;;-0.50;59.20;101317.19;4995644;28;20727;-71
2022/04/03 04:45:37;;;;;;;5.25;3.88;;;-0.30;23.50;;;-0.50;59.58;101316.34;4995582;28;20707;-71
2022/04/03 04:48:06;;;;;;;10.43;4.53;;;-0.30;23.40;;;-0.46;59.62;101317.78;4976661;28;20297;-71
2022/04/03 04:50:35;;;;;;;7.18;4.80;;;-0.30;23.90;;;-0.41;58.80;101312.97;4976662;28;20254;-70
2022/04/03 04:56:13;;;;;;;8.70;5.30;;;-0.30;23.20;;;-0.49;59.08;101313.56;5221322;24;20684;-66
2022/04/03 04:58:42;;;;;;;5.43;4.03;;;-0.30;23.00;;;-0.45;59.10;101309.69;4808603;29;20280;-65
2022/04/03 05:01:12;;;;;;;6.45;4.68;;;-0.30;23.10;;;-0.39;59.08;101315.50;4808357;29;20275;-65
2022/04/03 05:03:41;;;;;;;7.22;4.95;;;-0.20;22.80;;;-0.40;58.71;101316.47;4808003;29;20627;-65
2022/04/03 05:06:12;;;;;;;9.45;5.40;;;-0.20;22.40;;;-0.38;58.34;101317.16;4808014;29;20193;-65
2022/04/03 05:08:42;;;;;;;5.90;4.00;;;-0.20;22.20;;;-0.37;58.11;101329.50;4808177;29;20192;-64
2022/04/03 05:11:12;;;;;;;8.00;4.40;;;-0.20;22.10;;;-0.38;58.41;101336.63;4808234;29;20265;-65
2022/04/03 05:13:42;;;;;;;5.35;4.55;;;-0.20;21.60;;;-0.36;58.36;101334.72;4808515;29;20240;-66
2022/04/03 05:16:22;;;;;;;4.07;3.67;;;-0.20;21.70;;;-0.28;57.68;101336.75;4807865;29;20182;-65
2022/04/03 05:19:01;;;;;;;6.70;3.90;;;-0.10;21.00;;;-0.28;57.70;101334.94;4807859;29;20239;-65
2022/04/03 05:21:39;;;;;;;5.32;3.90;;;-0.10;20.70;;;-0.24;57.97;101336.38;4821996;29;20205;-66
2022/04/03 05:24:13;;;;;;;8.80;3.90;;;-0.10;21.00;;;-0.17;57.66;101344.72;4806599;29;20260;-65
2022/04/03 05:26:54;;;;;;;6.40;3.90;;;-0.10;20.40;;;-0.16;57.33;101341.13;4808267;29;20197;-65
2022/04/03 05:29:29;;;;;;;3.80;3.35;;;0.00;20.00;;;-0.18;57.04;101343.03;4806466;29;20197;-65
2022/04/03 05:32:06;;;;;;;5.10;3.35;;;0.00;19.80;;;-0.23;57.29;101334.56;4808883;29;20209;-64
2022/04/03 05:34:45;;;;;;;4.13;3.53;;;-0.10;19.50;;;-0.14;57.26;101344.47;4806823;29;20239;-65
2022/04/03 05:37:23;;;;;;;5.07;3.75;;;0.00;19.60;;;-0.06;56.91;101342.06;4807647;29;20192;-65
2022/04/03 05:39:56;;;;;;;4.85;4.00;;;0.00;19.30;;;0.16;56.19;101342.03;4807712;29;20185;-66
2022/04/03 05:42:33;;;;;;;6.88;3.28;;;0.20;19.10;;;0.20;55.84;101337.28;4806147;29;20222;-66
2022/04/03 05:45:05;;;;;;;4.45;3.70;;;0.30;18.70;;;0.16;56.20;101342.03;4806837;29;20710;-66
2022/04/03 05:47:44;;;;;;;3.72;3.40;;;0.20;18.30;;;0.12;55.86;101342.41;4806259;29;20211;-67
2022/04/03 05:50:19;;;;;;;4.60;2.53;;;0.30;17.50;;;0.17;55.91;101338.41;4806923;29;20216;-66
2022/04/03 05:53:05;;;;;;;4.47;3.03;;;0.30;17.70;;;0.27;55.92;101343.81;4836542;29;20674;-65
2022/04/03 05:55:43;;;;;;;4.68;3.30;;;0.40;17.60;;;0.37;55.42;101347.41;4836067;29;20267;-65
2022/04/03 05:58:16;;;;;;;4.35;3.05;;;0.40;17.00;;;0.50;54.47;101341.91;4821769;29;20205;-65
2022/04/03 06:00:51;;;;;;;3.80;3.22;;;0.50;16.40;;;0.50;54.69;101344.59;4807235;29;20186;-65
2022/04/03 06:03:33;;;;;;;3.80;3.10;;;0.60;16.30;;;0.79;54.61;101345.69;4836199;29;20313;-65
2022/04/03 06:06:19;;;;;;;7.10;3.20;;;0.80;16.30;;;0.92;53.75;101349.00;4806397;29;20233;-64
2022/04/03 06:08:57;;;;;;;3.53;3.22;;;0.80;15.70;;;0.98;53.57;101345.81;4805697;29;20205;-64
2022/04/03 06:11:31;;;;;;;4.28;3.05;;;1.00;15.30;;;0.92;53.53;101351.66;4821514;29;20212;-65
2022/04/03 06:14:06;;;;;;;4.53;3.38;;;1.00;15.00;;;0.86;53.86;101358.38;4805906;29;20213;-65
2022/04/03 06:16:41;;;;;;;4.45;2.85;;;1.00;14.80;;;0.67;54.41;101350.22;4807385;29;20184;-65
2022/04/03 06:19:16;;;;;;;7.88;3.95;;;0.80;14.80;;;0.59;54.28;101351.81;4807268;29;20205;-65
2022/04/03 06:21:50;;;;;;;3.97;3.28;;;0.80;14.70;;;0.46;54.77;101343.16;4817582;29;20217;-65
2022/04/03 06:24:22;;;;;;;3.85;3.53;;;0.70;14.80;;;0.37;55.10;101348.28;4844092;29;20226;-66
2022/04/03 06:26:55;;;;;;;4.32;2.85;;;0.60;15.20;;;0.28;55.32;101351.69;4810181;29;20198;-66
2022/04/03 06:29:30;;;;;;;6.78;3.05;;;0.50;15.30;;;0.14;55.53;101351.97;4809810;29;20284;-65
2022/04/03 06:32:03;;;;;;;5.80;3.00;;;0.40;15.20;;;0.23;55.10;101345.88;4810361;29;20201;-66
2022/04/03 06:34:42;;;;;;;6.22;3.25;;;0.40;15.60;;;0.40;55.14;101345.34;4812010;29;20342;-67
2022/04/03 06:37:24;;;;;;;3.00;2.70;;;0.50;15.40;;;0.61;54.78;101347.22;4825892;29;20229;-66
2022/04/03 06:39:59;;;;;;;4.00;2.95;;;0.70;15.10;;;0.88;54.21;101352.88;4812218;29;20548;-66
2022/04/03 06:42:36;;;;;;;6.00;3.67;;;0.90;14.80;;;1.16;53.41;101349.59;4811021;29;20197;-67
2022/04/03 06:45:16;;;;;;;4.15;3.30;;;1.20;14.50;;;1.33;52.97;101349.97;4808418;29;20583;-64
2022/04/03 06:47:51;;;;;;;8.48;3.00;;;1.30;13.70;;;1.38;51.94;101355.75;4809392;29;20649;-66
2022/04/03 06:50:28;;;;;;;4.18;2.75;;;1.50;12.40;;;1.47;52.25;101352.28;4806557;29;20193;-65
2022/04/03 06:53:03;;;;;;;4.28;3.88;;;1.60;12.20;;;1.85;51.50;101352.47;4807276;29;20208;-64
2022/04/03 06:55:39;;;;;;;4.43;3.08;;;1.80;12.10;;;1.94;51.05;101340.97;4805438;29;20693;-65
2022/04/03 06:58:19;;;;;;;3.70;2.83;;;1.90;11.30;;;2.23;50.91;101345.56;4833785;29;20614;-67
2022/04/03 07:00:56;;;;;;;6.93;2.65;;;2.00;11.50;;;2.62;49.67;101353.47;4805442;29;20204;-66
2022/04/03 07:03:31;;;;;;;3.95;3.22;;;2.40;10.60;;;2.50;49.48;101348.41;4835968;29;20232;-65
2022/04/03 07:06:08;;;;;;;7.10;4.00;;;2.50;9.40;;;2.52;49.40;101351.78;4805491;29;20205;-66
2022/04/03 07:08:44;;;;;;;3.90;3.50;;;2.60;8.90;;;2.65;49.13;101352.38;4806120;29;20663;-65
2022/04/03 07:11:18;;;;;;;6.55;3.75;;;2.60;8.70;;;2.77;49.02;101359.25;4804923;29;20204;-66
2022/04/03 07:13:53;;;;;;;5.47;3.40;;;2.70;8.50;;;2.92;48.33;101355.19;4835271;29;20217;-67
2022/04/03 07:16:28;;;;;;;7.05;4.90;;;2.80;7.70;;;3.15;47.77;101360.25;4821489;29;20189;-66
2022/04/03 07:19:06;;;;;;;3.75;2.67;;;3.00;7.30;;;3.36;47.71;101358.22;4806886;29;20201;-66
2022/04/03 07:21:51;;;;;;;4.85;3.33;;;3.20;7.20;;;3.52;47.21;101362.97;4804882;29;20286;-66
2022/04/03 07:24:29;;;;;;;5.75;3.20;;;3.30;6.70;;;3.48;47.45;101362.41;4804783;29;20324;-65
2022/04/03 07:27:00;;;;;;;3.90;3.50;;;3.40;6.50;;;3.69;47.35;101367.53;4806161;29;20427;-66
2022/04/03 07:29:38;;;;;;;7.68;2.72;;;3.50;6.30;;;3.13;46.77;101378.25;4807089;29;20191;-66
2022/04/03 07:32:13;;;;;;;3.97;3.20;;;3.40;4.50;;;3.20;47.18;101374.84;4806780;29;20201;-66
2022/04/03 07:34:45;;;;;;;3.65;3.08;;;3.30;4.80;;;3.72;46.21;101376.16;4805410;29;20712;-65
2022/04/03 07:37:19;;;;;;;3.38;2.80;;;3.60;4.80;;;3.69;46.55;101384.44;4806044;29;20278;-65
2022/04/03 07:39:54;;;;;;;5.07;3.30;;;3.60;4.60;;;3.44;46.75;101385.06;4810819;29;20213;-65
2022/04/03 07:42:32;;;;;;;5.47;3.10;;;3.60;4.20;;;3.23;47.24;101384.44;4810260;29;20227;-65
2022/04/03 07:45:04;;;;;;;5.80;3.63;;;3.50;4.00;;;3.36;47.34;101396.50;4838299;29;20305;-66
2022/04/03 07:47:38;;;;;;;5.22;3.45;;;3.60;4.60;;;2.84;48.52;101389.78;4807815;29;20649;-67
2022/04/03 07:50:13;;;;;;;8.13;3.15;;;3.20;5.20;;;3.06;48.37;101394.00;4806739;29;20308;-66
2022/04/03 07:52:56;;;;;;;4.47;3.30;;;3.20;5.70;;;2.80;49.23;101383.03;4810167;29;20574;-66
2022/04/03 07:55:33;;;;;;;4.15;3.05;;;3.00;6.00;;;3.21;48.69;101381.03;4810770;29;20209;-66
2022/04/03 07:58:13;;;;;;;3.55;2.95;;;3.20;6.40;;;3.43;48.59;101380.75;4808362;29;20204;-66
2022/04/03 08:00:49;;;;;;;3.40;2.70;;;3.30;6.50;;;3.67;48.17;101374.88;4805008;29;20202;-65
2022/04/03 08:03:19;;;;;;;3.55;2.45;;;3.50;6.30;;;3.48;48.34;101373.13;4805424;29;20563;-66
2022/04/03 08:06:00;;;;;;;2.55;1.98;;;3.60;5.90;;;3.31;49.15;101376.53;4806231;29;20273;-65
2022/04/03 08:08:35;;;;;;;3.17;2.50;;;3.50;6.30;;;3.50;48.40;101371.13;4807879;29;20202;-68
2022/04/03 08:11:06;;;;;;;3.50;2.25;;;3.60;6.10;;;3.77;48.10;101371.19;4809267;29;20667;-66
2022/04/03 08:13:37;;;;;;;3.58;2.53;;;3.80;6.00;;;3.89;48.03;101369.16;4809264;29;20602;-65
2022/04/03 08:16:10;;;;;;;3.35;2.25;;;3.90;6.00;;;4.38;47.55;101363.41;4808814;29;20205;-65
2022/04/03 08:18:42;;;;;;;4.32;2.53;;;4.10;5.90;;;4.68;46.72;101364.06;4839115;29;20686;-67
2022/04/03 08:21:13;;;;;;;2.58;1.88;;;4.40;5.40;;;4.28;46.56;101367.13;4808176;29;20571;-67
2022/04/03 08:23:46;;;;;;;4.30;2.35;;;4.40;3.90;;;4.30;46.74;101362.47;4807787;29;20253;-65
2022/04/03 08:26:25;;;;;;;3.63;1.80;;;4.40;4.30;;;4.47;46.43;101361.66;4809692;29;20660;-66
2022/04/03 08:28:59;;;;;;;4.78;2.85;;;4.30;4.00;;;4.20;45.83;101369.72;4807782;29;20220;-66
2022/04/03 08:31:30;;;;;;;3.15;2.08;;;4.40;3.20;;;3.97;45.91;101360.41;4810005;29;20201;-67
2022/04/03 08:34:02;;;;;;;3.15;2.17;;;4.20;3.00;;;4.02;45.09;101361.63;4814969;29;20213;-66
2022/04/03 08:36:35;;;;;;;3.10;2.80;;;4.10;2.20;;;4.03;45.79;101357.13;4819105;29;20197;-66
2022/04/03 08:39:07;;;;;;;4.97;2.45;;;4.20;2.50;;;4.63;44.39;101363.66;4819205;29;20266;-66
2022/04/03 08:41:39;;;;;;;3.35;2.10;;;4.50;1.80;;;4.91;42.96;101365.28;4820896;29;20253;-65
2022/04/03 08:44:10;;;;;;;3.45;2.60;;;4.80;1.00;;;5.38;42.17;101364.97;4808653;29;20236;-65
2022/04/03 08:46:47;;;;;;;2.88;2.20;;;5.10;1.00;;;5.38;42.06;101360.44;4792923;29;20206;-66
2022/04/03 08:49:20;;;;;;;1.67;1.58;;;5.30;1.00;;;5.26;41.36;101364.38;4807503;29;20205;-66
2022/04/03 08:51:53;;;;;;;3.35;2.40;;;5.40;1.00;;;5.36;41.38;101359.78;4807502;29;20202;-66
2022/04/03 08:54:26;;;;;;;8.32;2.50;;;5.40;1.00;;;5.17;41.45;101368.00;4822339;29;20285;-65
2022/04/03 08:57:03;;;;;;;3.92;3.10;;;5.30;1.00;;;5.40;41.59;101366.50;4808041;29;20288;-66
2022/04/03 08:59:45;;;;;;;4.90;2.85;;;5.30;1.00;;;5.60;41.03;101364.44;4823683;29;20653;-65
2022/04/03 09:02:17;;;;;;;3.50;2.72;;;5.40;1.00;;;5.77;41.07;101373.44;4807017;29;20201;-65
2022/04/03 09:04:53;;;;;;;2.33;2.13;;;5.60;1.00;;;5.43;41.42;101366.19;4792074;29;20232;-66
2022/04/03 09:07:34;;;;;;;4.10;2.45;;;5.60;1.00;;;4.87;41.75;101363.06;4807761;29;20181;-66
2022/04/03 09:10:16;;;;;;;2.08;1.60;;;5.20;1.00;;;4.82;41.77;101359.00;4807377;29;20580;-65
2022/04/03 09:12:51;;;;;;;3.45;1.95;;;5.00;1.00;;;5.24;41.72;101356.50;4808661;29;20257;-67
2022/04/03 09:15:27;;;;;;;3.28;2.35;;;5.10;1.00;;;6.02;39.92;101353.78;4807788;29;20217;-65
2022/04/03 09:18:01;;;;;;;3.05;2.78;;;5.60;1.00;;;6.18;39.38;101348.47;4807332;29;20205;-65
2022/04/03 09:20:37;;;;;;;5.00;2.80;;;5.90;1.00;;;6.16;39.99;101346.94;4808128;29;20193;-66
2022/04/03 09:23:10;;;;;;;4.65;2.85;;;6.10;1.00;;;6.62;39.13;101348.25;4809856;29;20185;-66
2022/04/03 09:25:46;;;;;;;6.13;2.40;;;6.30;1.00;;;6.57;38.03;101346.06;4809433;29;20595;-65
2022/04/03 09:28:17;;;;;;;4.03;2.50;;;6.50;1.00;;;6.67;38.35;101340.53;4811643;29;20200;-65
2022/04/03 09:30:51;;;;;;;3.67;3.35;;;6.60;1.00;;;6.75;38.90;101344.06;4811596;29;20193;-66
2022/04/03 09:33:27;;;;;;;4.38;2.60;;;6.60;1.00;;;6.31;36.99;101350.69;4841302;29;20624;-65
2022/04/03 09:36:01;;;;;;;4.05;2.60;;;6.50;1.00;;;6.53;36.09;101334.78;4811108;29;20186;-65
2022/04/03 09:38:35;;;;;;;2.70;2.00;;;6.50;1.00;;;6.33;35.76;101343.31;4807512;29;20198;-66
2022/04/03 09:41:08;;;;;;;3.05;2.53;;;6.20;1.00;;;6.79;35.76;101331.13;4807124;29;20209;-66
2022/04/03 09:43:40;;;;;;;2.08;1.90;;;6.50;1.00;;;7.24;34.79;101334.16;4809340;29;20262;-65
2022/04/03 09:46:14;;;;;;;3.75;2.70;;;6.90;1.00;;;7.77;35.59;101330.00;4806448;29;20225;-65
2022/04/03 09:48:50;;;;;;;2.10;1.90;;;7.40;1.00;;;6.50;34.98;101329.75;4807112;29;20212;-67
2022/04/03 09:51:34;;;;;;;3.88;2.50;;;7.00;1.00;;;6.58;35.23;101320.88;4805791;29;20205;-66
2022/04/03 09:54:06;;;;;;;3.97;2.70;;;6.70;1.00;;;6.33;35.33;101338.78;4805614;29;20605;-66
2022/04/03 09:56:39;;;;;;;3.97;3.30;;;6.60;1.00;;;6.60;35.68;101329.59;4836084;29;20246;-65
2022/04/03 09:59:10;;;;;;;4.22;3.08;;;6.50;1.00;;;6.90;34.71;101330.81;4807073;29;20182;-65
2022/04/03 10:01:42;;;;;;;3.00;2.70;;;6.70;1.00;;;6.79;35.46;101334.66;4805717;29;20235;-66
2022/04/03 10:04:15;;;;;;;4.90;2.72;;;6.80;1.00;;;6.35;35.88;101326.00;4835635;29;20217;-67
2022/04/03 10:06:49;;;;;;;2.67;2.10;;;6.60;1.00;;;5.90;36.37;101318.31;4790779;29;20202;-66
2022/04/03 10:09:26;;;;;;;2.47;2.10;;;6.20;1.00;;;5.97;36.40;101315.81;4806982;29;20186;-66
2022/04/03 10:11:58;;;;;;;3.22;2.92;;;6.20;1.00;;;6.37;36.20;101329.41;4805534;29;20607;-65
2022/04/03 10:14:32;;;;;;;6.95;2.70;;;6.30;1.00;;;6.96;36.29;101314.00;4835458;29;20308;-65
2022/04/03 10:17:02;;;;;;;2.85;2.50;;;6.60;1.00;;;7.45;34.96;101312.09;4805746;29;20228;-67
2022/04/03 10:19:36;;;;;;;3.28;2.38;;;7.10;1.00;;;7.42;34.96;101313.25;4836190;29;20238;-66
2022/04/03 10:22:14;;;;;;;3.03;2.55;;;7.10;1.00;;;7.45;35.00;101308.56;4805424;29;20201;-66
2022/04/03 10:24:52;;;;;;;6.50;3.25;;;7.10;1.00;;;7.37;35.35;101307.53;4805570;29;20583;-65
2022/04/03 10:27:35;;;;;;;4.15;3.65;;;7.20;1.00;;;7.49;34.95;101304.50;4806423;29;20664;-66
2022/04/03 10:30:10;;;;;;;4.65;2.63;;;7.30;1.00;;;7.13;34.66;101309.44;4804935;29;20292;-67
2022/04/03 10:32:41;;;;;;;2.65;2.00;;;7.30;1.00;;;7.31;34.00;101297.47;4806892;29;20758;-67
2022/04/03 10:35:14;;;;;;;4.20;2.33;;;7.20;1.00;;;7.51;34.03;101305.16;4808706;29;20228;-67
2022/04/03 10:37:47;;;;;;;4.18;2.63;;;7.30;1.00;;;6.71;34.33;101304.22;4808049;29;20182;-66
2022/04/03 10:40:28;;;;;;;6.50;2.42;;;6.90;1.00;;;6.36;34.68;101297.28;4805460;29;20210;-67
2022/04/03 10:43:03;;;;;;;3.20;2.03;;;6.60;1.00;;;5.63;35.30;101281.75;4805427;29;20288;-66
2022/04/03 10:45:35;;;;;;;2.85;2.22;;;5.90;1.00;;;6.41;35.16;101282.34;4835522;29;20726;-65
2022/04/03 10:48:31;;;;;;;3.05;2.38;;;6.20;1.00;;;7.32;33.41;101272.22;4805373;29;20606;-68
2022/04/03 10:51:10;;;;;;;2.67;2.30;;;6.80;1.00;;;7.76;32.92;101269.03;4805676;29;20266;-66
2022/04/03 10:53:43;;;;;;;5.40;3.17;;;7.30;1.00;;;8.25;32.03;101258.84;4805387;29;20248;-66
2022/04/03 10:56:23;;;;;;;4.30;2.63;;;7.80;1.00;;;8.21;31.85;101263.78;4848043;23;20244;-72
2022/04/03 10:58:55;;;;;;;3.20;2.90;;;8.00;1.00;;;7.74;32.73;101254.94;4805722;29;20338;-71
2022/04/03 11:01:28;;;;;;;5.20;2.22;;;7.70;1.00;;;7.08;33.28;101263.34;4806468;29;20699;-72
2022/04/03 11:04:03;;;;;;;5.80;2.13;;;7.50;1.00;;;7.32;33.33;101261.44;4806436;29;20546;-71
2022/04/03 11:06:35;;;;;;;4.20;2.67;;;7.40;1.00;;;7.30;33.49;101255.41;4806103;29;20224;-72
2022/04/03 11:09:29;;;;;;;4.65;2.50;;;7.30;1.00;;;7.74;32.96;101249.53;4805772;29;20182;-71
2022/04/03 11:12:01;;;;;;;8.02;3.10;;;7.50;1.00;;;8.41;32.36;101252.56;4805651;29;20196;-70
2022/04/03 11:14:58;;;;;;;3.85;2.00;;;7.90;1.00;;;8.34;31.93;101230.84;4805626;29;20241;-72
2022/04/03 11:17:53;;;;;;;2.63;2.00;;;8.00;1.00;;;9.26;30.99;101236.94;4805303;29;20667;-71
2022/04/03 11:20:40;;;;;;;2.85;2.38;;;8.70;1.00;;;9.52;29.91;101230.06;4835000;29;20208;-70
2022/04/03 11:23:14;;;;;;;3.75;2.80;;;9.20;1.00;;;9.29;30.13;101223.09;4806857;29;20531;-71
2022/04/03 11:25:44;;;;;;;3.45;2.60;;;9.20;1.00;;;8.94;30.68;101228.16;4809275;29;20358;-72
2022/04/03 11:28:14;;;;;;;3.40;2.80;;;9.10;1.00;;;8.14;31.92;101222.34;4804594;29;20231;-71
2022/04/03 11:30:47;;;;;;;4.60;2.88;;;8.40;1.00;;;8.56;31.32;101218.38;4803805;29;20675;-71
2022/04/03 11:33:17;;;;;;;6.35;2.55;;;8.50;1.00;;;7.93;32.40;101210.53;4804962;29;20255;-71
2022/04/03 11:35:47;;;;;;;4.53;2.70;;;8.20;1.00;;;8.20;32.06;101210.88;4805493;29;20225;-73
2022/04/03 11:38:17;;;;;;;5.97;2.88;;;8.10;1.00;;;8.46;31.92;101212.41;4805234;29;20192;-71
2022/04/03 11:40:47;;;;;;;7.53;2.50;;;8.30;1.00;;;8.42;32.54;101197.59;4805170;29;20321;-70
2022/04/03 11:43:18;;;;;;;3.97;2.88;;;8.30;1.00;;;7.46;33.66;101213.28;4808839;29;20261;-70
2022/04/03 11:45:56;;;;;;;4.30;2.97;;;7.90;1.00;;;7.72;34.24;101203.06;4807675;29;20246;-72
2022/04/03 11:48:30;;;;;;;2.67;2.47;;;7.70;1.00;;;7.74;33.40;101201.91;4809201;29;20189;-71
2022/04/03 11:51:09;;;;;;;3.75;2.80;;;7.70;1.00;;;8.48;32.76;101203.09;4808693;29;20182;-72
2022/04/03 11:53:40;;;;;;;3.95;3.05;;;8.10;1.00;;;8.10;32.03;101196.78;4811785;29;20269;-71
2022/04/03 11:56:12;;;;;;;4.00;2.08;;;8.30;1.00;;;7.75;33.09;101191.94;4810186;29;20225;-70
2022/04/03 11:58:43;;;;;;;4.80;2.30;;;7.90;1.00;;;7.65;33.78;101191.34;4808837;29;20631;-72
2022/04/03 12:01:14;;;;;;;2.58;2.38;;;7.70;1.00;;;7.57;33.88;101191.34;4810118;29;20671;-70